sensor_id;sensor_type;location;lat;lon;timestamp;P1;durP1;ratioP1;P2;durP2;ratioP2
73474;SDS011;61711;52.266;10.542;2023-03-14T00:02:22;7.40;;;2.95;;
73474;SDS011;61711;52.266;10.542;2023-03-14T00:04:48;8.00;;;2.90;;
73474;SDS011;61711;52.266;10.542;2023-03-14T00:07:14;9.52;;;2.60;;
73474;SDS011;61711;52.266;10.542;2023-03-14T00:09:40;4.32;;;2.50;;
73474;SDS011;61711;52.266;10.542;2023-03-14T00:12:06;5.88;;;2.50;;
73474;SDS011;61711;52.266;10.542;2023-03-14T00:14:32;6.25;;;2.40;;
73474;SDS011;61711;52.266;10.542;2023-03-14T00:16:58;7.95;;;2.63;;
73474;SDS011;61711;52.266;10.542;2023-03-14T00:19:24;3.90;;;2.15;;
73474;SDS011;61711;52.266;10.542;2023-03-14T00:21:50;2.83;;;1.70;;
73474;SDS011;61711;52.266;10.542;2023-03-14T00:24:16;3.20;;;1.92;;
73474;SDS011;61711;52.266;10.542;2023-03-14T00:26:42;2.58;;;1.67;;
73474;SDS011;61711;52.266;10.542;2023-03-14T00:29:08;3.90;;;1.65;;
73474;SDS011;61711;52.266;10.542;2023-03-14T00:31:34;3.85;;;1.98;;
73474;SDS011;61711;52.266;10.542;2023-03-14T00:34:01;7.13;;;2.00;;
73474;SDS011;61711;52.266;10.542;2023-03-14T00:36:27;5.63;;;2.20;;
73474;SDS011;61711;52.266;10.542;2023-03-14T00:38:53;3.20;;;1.90;;
73474;SDS011;61711;52.266;10.542;2023-03-14T00:41:20;5.00;;;2.00;;
73474;SDS011;61711;52.266;10.542;2023-03-14T00:43:47;4.68;;;2.40;;
73474;SDS011;61711;52.266;10.542;2023-03-14T00:46:13;5.13;;;2.10;;
73474;SDS011;61711;52.266;10.542;2023-03-14T00:48:39;6.13;;;2.60;;
73474;SDS011;61711;52.266;10.542;2023-03-14T00:51:06;5.93;;;2.63;;
73474;SDS011;61711;52.266;10.542;2023-03-14T00:53:35;5.30;;;3.03;;
73474;SDS011;61711;52.266;10.542;2023-03-14T00:56:02;7.70;;;3.55;;
73474;SDS011;61711;52.266;10.542;2023-03-14T00:58:28;8.70;;;3.50;;
73474;SDS011;61711;52.266;10.542;2023-03-14T01:00:54;5.78;;;3.13;;
73474;SDS011;61711;52.266;10.542;2023-03-14T01:03:20;8.48;;;3.45;;
73474;SDS011;61711;52.266;10.542;2023-03-14T01:05:46;6.07;;;2.97;;
73474;SDS011;61711;52.266;10.542;2023-03-14T01:08:12;7.72;;;2.97;;
73474;SDS011;61711;52.266;10.542;2023-03-14T01:10:39;4.82;;;2.42;;
73474;SDS011;61711;52.266;10.542;2023-03-14T01:13:05;5.30;;;2.25;;
73474;SDS011;61711;52.266;10.542;2023-03-14T01:15:32;5.00;;;2.40;;
73474;SDS011;61711;52.266;10.542;2023-03-14T01:17:58;6.57;;;1.83;;
73474;SDS011;61711;52.266;10.542;2023-03-14T01:20:24;3.60;;;1.80;;
73474;SDS011;61711;52.266;10.542;2023-03-14T01:22:50;3.83;;;1.60;;
73474;SDS011;61711;52.266;10.542;2023-03-14T01:25:16;3.97;;;1.70;;
73474;SDS011;61711;52.266;10.542;2023-03-14T01:27:43;5.35;;;1.80;;
73474;SDS011;61711;52.266;10.542;2023-03-14T01:30:10;5.47;;;1.80;;
73474;SDS011;61711;52.266;10.542;2023-03-14T01:32:36;3.80;;;2.00;;
73474;SDS011;61711;52.266;10.542;2023-03-14T01:35:02;7.78;;;2.10;;
73474;SDS011;61711;52.266;10.542;2023-03-14T01:37:29;4.95;;;2.47;;
73474;SDS011;61711;52.266;10.542;2023-03-14T01:39:55;5.15;;;2.05;;
73474;SDS011;61711;52.266;10.542;2023-03-14T01:42:21;4.30;;;1.80;;
73474;SDS011;61711;52.266;10.542;2023-03-14T01:44:54;3.10;;;1.80;;
73474;SDS011;61711;52.266;10.542;2023-03-14T01:47:20;1.77;;;1.45;;
73474;SDS011;61711;52.266;10.542;2023-03-14T01:49:48;2.53;;;1.02;;
73474;SDS011;61711;52.266;10.542;2023-03-14T01:52:26;2.90;;;1.50;;
73474;SDS011;61711;52.266;10.542;2023-03-14T01:54:58;2.60;;;1.20;;
73474;SDS011;61711;52.266;10.542;2023-03-14T02:02:48;2.00;;;1.25;;
73474;SDS011;61711;52.266;10.542;2023-03-14T02:05:17;1.90;;;1.15;;
73474;SDS011;61711;52.266;10.542;2023-03-14T02:07:54;2.72;;;1.20;;
73474;SDS011;61711;52.266;10.542;2023-03-14T02:10:22;3.13;;;1.30;;
73474;SDS011;61711;52.266;10.542;2023-03-14T02:12:50;2.33;;;1.20;;
73474;SDS011;61711;52.266;10.542;2023-03-14T02:15:16;2.10;;;1.23;;
73474;SDS011;61711;52.266;10.542;2023-03-14T02:17:42;4.68;;;1.40;;
73474;SDS011;61711;52.266;10.542;2023-03-14T02:22:45;4.25;;;1.38;;
73474;SDS011;61711;52.266;10.542;2023-03-14T02:27:52;2.15;;;1.20;;
73474;SDS011;61711;52.266;10.542;2023-03-14T02:30:20;2.92;;;1.70;;
73474;SDS011;61711;52.266;10.542;2023-03-14T02:32:47;4.28;;;1.70;;
73474;SDS011;61711;52.266;10.542;2023-03-14T02:35:15;3.35;;;2.03;;
73474;SDS011;61711;52.266;10.542;2023-03-14T02:40:28;5.93;;;2.10;;
73474;SDS011;61711;52.266;10.542;2023-03-14T02:42:54;4.53;;;1.67;;
73474;SDS011;61711;52.266;10.542;2023-03-14T02:47:48;4.53;;;2.10;;
73474;SDS011;61711;52.266;10.542;2023-03-14T02:50:16;5.95;;;1.60;;
73474;SDS011;61711;52.266;10.542;2023-03-14T02:52:42;5.93;;;1.90;;
73474;SDS011;61711;52.266;10.542;2023-03-14T02:55:09;5.47;;;1.85;;
73474;SDS011;61711;52.266;10.542;2023-03-14T02:57:35;6.43;;;1.80;;
73474;SDS011;61711;52.266;10.542;2023-03-14T03:00:01;5.53;;;1.80;;
73474;SDS011;61711;52.266;10.542;2023-03-14T03:02:31;5.55;;;2.00;;
73474;SDS011;61711;52.266;10.542;2023-03-14T03:04:57;3.90;;;1.98;;
73474;SDS011;61711;52.266;10.542;2023-03-14T03:07:23;6.32;;;2.28;;
73474;SDS011;61711;52.266;10.542;2023-03-14T03:09:49;5.07;;;2.70;;
73474;SDS011;61711;52.266;10.542;2023-03-14T03:12:15;5.60;;;2.10;;
73474;SDS011;61711;52.266;10.542;2023-03-14T03:14:41;3.55;;;1.98;;
73474;SDS011;61711;52.266;10.542;2023-03-14T03:17:07;5.25;;;2.35;;
73474;SDS011;61711;52.266;10.542;2023-03-14T03:19:33;5.88;;;1.85;;
73474;SDS011;61711;52.266;10.542;2023-03-14T03:21:59;5.80;;;2.10;;
73474;SDS011;61711;52.266;10.542;2023-03-14T03:24:25;4.57;;;1.75;;
73474;SDS011;61711;52.266;10.542;2023-03-14T03:26:52;6.68;;;1.90;;
73474;SDS011;61711;52.266;10.542;2023-03-14T03:29:18;5.55;;;1.83;;
73474;SDS011;61711;52.266;10.542;2023-03-14T03:31:44;3.97;;;1.77;;
73474;SDS011;61711;52.266;10.542;2023-03-14T03:34:11;5.43;;;1.58;;
73474;SDS011;61711;52.266;10.542;2023-03-14T03:36:37;3.55;;;1.48;;
73474;SDS011;61711;52.266;10.542;2023-03-14T03:39:03;5.15;;;1.45;;
73474;SDS011;61711;52.266;10.542;2023-03-14T03:41:30;2.83;;;1.25;;
73474;SDS011;61711;52.266;10.542;2023-03-14T03:43:56;2.28;;;1.40;;
73474;SDS011;61711;52.266;10.542;2023-03-14T03:46:22;3.47;;;1.48;;
73474;SDS011;61711;52.266;10.542;2023-03-14T03:48:48;4.85;;;1.63;;
73474;SDS011;61711;52.266;10.542;2023-03-14T03:51:15;4.03;;;1.33;;
73474;SDS011;61711;52.266;10.542;2023-03-14T03:53:41;2.60;;;1.85;;
73474;SDS011;61711;52.266;10.542;2023-03-14T03:56:07;4.70;;;1.85;;
73474;SDS011;61711;52.266;10.542;2023-03-14T03:58:34;5.80;;;2.60;;
73474;SDS011;61711;52.266;10.542;2023-03-14T04:01:00;4.63;;;1.98;;
73474;SDS011;61711;52.266;10.542;2023-03-14T04:03:26;4.68;;;1.98;;
73474;SDS011;61711;52.266;10.542;2023-03-14T04:05:59;4.43;;;1.80;;
73474;SDS011;61711;52.266;10.542;2023-03-14T04:08:25;4.30;;;1.83;;
73474;SDS011;61711;52.266;10.542;2023-03-14T04:10:54;3.85;;;2.00;;
73474;SDS011;61711;52.266;10.542;2023-03-14T04:13:19;4.68;;;2.00;;
73474;SDS011;61711;52.266;10.542;2023-03-14T04:15:45;5.32;;;2.13;;
73474;SDS011;61711;52.266;10.542;2023-03-14T04:18:11;4.35;;;1.98;;
73474;SDS011;61711;52.266;10.542;2023-03-14T04:20:37;5.50;;;2.28;;
73474;SDS011;61711;52.266;10.542;2023-03-14T04:23:03;4.82;;;2.25;;
73474;SDS011;61711;52.266;10.542;2023-03-14T04:25:29;6.03;;;2.33;;
73474;SDS011;61711;52.266;10.542;2023-03-14T04:27:55;4.18;;;2.20;;
73474;SDS011;61711;52.266;10.542;2023-03-14T04:30:21;4.05;;;1.90;;
73474;SDS011;61711;52.266;10.542;2023-03-14T04:32:47;3.80;;;1.95;;
73474;SDS011;61711;52.266;10.542;2023-03-14T04:35:13;3.58;;;1.90;;
73474;SDS011;61711;52.266;10.542;2023-03-14T04:37:39;2.97;;;1.60;;
73474;SDS011;61711;52.266;10.542;2023-03-14T04:40:08;5.13;;;2.33;;
73474;SDS011;61711;52.266;10.542;2023-03-14T04:42:34;1.88;;;1.38;;
73474;SDS011;61711;52.266;10.542;2023-03-14T04:45:00;2.47;;;1.38;;
73474;SDS011;61711;52.266;10.542;2023-03-14T04:47:27;2.22;;;1.20;;
73474;SDS011;61711;52.266;10.542;2023-03-14T04:49:53;3.90;;;1.33;;
73474;SDS011;61711;52.266;10.542;2023-03-14T04:52:19;2.13;;;1.30;;
73474;SDS011;61711;52.266;10.542;2023-03-14T04:54:45;4.00;;;1.88;;
73474;SDS011;61711;52.266;10.542;2023-03-14T04:57:11;6.53;;;3.08;;
73474;SDS011;61711;52.266;10.542;2023-03-14T04:59:36;3.47;;;1.80;;
73474;SDS011;61711;52.266;10.542;2023-03-14T05:02:02;2.22;;;1.10;;
73474;SDS011;61711;52.266;10.542;2023-03-14T05:04:29;3.88;;;1.20;;
73474;SDS011;61711;52.266;10.542;2023-03-14T05:06:57;3.63;;;1.20;;
73474;SDS011;61711;52.266;10.542;2023-03-14T05:09:23;3.50;;;1.10;;
73474;SDS011;61711;52.266;10.542;2023-03-14T05:11:49;3.13;;;1.10;;
73474;SDS011;61711;52.266;10.542;2023-03-14T05:14:15;3.28;;;1.15;;
73474;SDS011;61711;52.266;10.542;2023-03-14T05:16:41;4.13;;;0.85;;
73474;SDS011;61711;52.266;10.542;2023-03-14T05:19:07;1.33;;;0.90;;
73474;SDS011;61711;52.266;10.542;2023-03-14T05:21:33;1.15;;;0.90;;
73474;SDS011;61711;52.266;10.542;2023-03-14T05:23:59;1.40;;;0.80;;
73474;SDS011;61711;52.266;10.542;2023-03-14T05:26:25;1.42;;;0.70;;
73474;SDS011;61711;52.266;10.542;2023-03-14T05:28:51;3.58;;;0.90;;
73474;SDS011;61711;52.266;10.542;2023-03-14T05:31:17;2.00;;;0.70;;
73474;SDS011;61711;52.266;10.542;2023-03-14T05:33:46;1.02;;;0.60;;
73474;SDS011;61711;52.266;10.542;2023-03-14T05:36:12;1.13;;;0.75;;
73474;SDS011;61711;52.266;10.542;2023-03-14T05:38:38;1.60;;;0.70;;
73474;SDS011;61711;52.266;10.542;2023-03-14T05:41:04;1.13;;;0.68;;
73474;SDS011;61711;52.266;10.542;2023-03-14T05:43:30;1.23;;;0.85;;
73474;SDS011;61711;52.266;10.542;2023-03-14T05:45:56;2.05;;;0.70;;
73474;SDS011;61711;52.266;10.542;2023-03-14T05:48:22;3.15;;;0.70;;
73474;SDS011;61711;52.266;10.542;2023-03-14T05:50:54;2.58;;;0.80;;
73474;SDS011;61711;52.266;10.542;2023-03-14T05:53:20;1.27;;;0.80;;
73474;SDS011;61711;52.266;10.542;2023-03-14T05:55:46;2.22;;;0.85;;
73474;SDS011;61711;52.266;10.542;2023-03-14T05:58:12;1.83;;;0.70;;
73474;SDS011;61711;52.266;10.542;2023-03-14T06:00:38;2.05;;;0.77;;
73474;SDS011;61711;52.266;10.542;2023-03-14T06:03:04;1.60;;;0.80;;
73474;SDS011;61711;52.266;10.542;2023-03-14T06:05:30;1.35;;;0.50;;
73474;SDS011;61711;52.266;10.542;2023-03-14T06:07:56;1.38;;;0.57;;
73474;SDS011;61711;52.266;10.542;2023-03-14T06:10:23;2.42;;;0.63;;
73474;SDS011;61711;52.266;10.542;2023-03-14T06:12:49;0.82;;;0.45;;
73474;SDS011;61711;52.266;10.542;2023-03-14T06:15:15;2.50;;;0.60;;
73474;SDS011;61711;52.266;10.542;2023-03-14T06:17:41;1.98;;;0.80;;
73474;SDS011;61711;52.266;10.542;2023-03-14T06:20:07;1.35;;;0.60;;
73474;SDS011;61711;52.266;10.542;2023-03-14T06:22:33;2.55;;;0.77;;
73474;SDS011;61711;52.266;10.542;2023-03-14T06:24:59;2.05;;;0.88;;
73474;SDS011;61711;52.266;10.542;2023-03-14T06:27:25;4.53;;;0.85;;
73474;SDS011;61711;52.266;10.542;2023-03-14T06:29:51;7.25;;;2.95;;
73474;SDS011;61711;52.266;10.542;2023-03-14T06:32:17;3.80;;;1.10;;
73474;SDS011;61711;52.266;10.542;2023-03-14T06:34:44;3.25;;;1.38;;
73474;SDS011;61711;52.266;10.542;2023-03-14T06:37:10;3.85;;;1.70;;
73474;SDS011;61711;52.266;10.542;2023-03-14T06:39:36;3.53;;;1.55;;
73474;SDS011;61711;52.266;10.542;2023-03-14T06:42:03;6.68;;;1.63;;
73474;SDS011;61711;52.266;10.542;2023-03-14T06:44:29;3.25;;;1.50;;
73474;SDS011;61711;52.266;10.542;2023-03-14T06:46:55;3.35;;;1.55;;
73474;SDS011;61711;52.266;10.542;2023-03-14T06:49:21;5.25;;;1.73;;
73474;SDS011;61711;52.266;10.542;2023-03-14T06:51:47;4.72;;;1.23;;
73474;SDS011;61711;52.266;10.542;2023-03-14T06:54:13;1.50;;;0.93;;
73474;SDS011;61711;52.266;10.542;2023-03-14T06:56:39;2.17;;;1.42;;
73474;SDS011;61711;52.266;10.542;2023-03-14T06:59:05;5.10;;;0.90;;
73474;SDS011;61711;52.266;10.542;2023-03-14T07:01:31;1.92;;;0.80;;
73474;SDS011;61711;52.266;10.542;2023-03-14T07:03:59;1.63;;;0.80;;
73474;SDS011;61711;52.266;10.542;2023-03-14T07:06:25;2.55;;;0.80;;
73474;SDS011;61711;52.266;10.542;2023-03-14T07:08:54;2.38;;;0.73;;
73474;SDS011;61711;52.266;10.542;2023-03-14T07:11:20;4.55;;;0.60;;
73474;SDS011;61711;52.266;10.542;2023-03-14T07:13:46;2.33;;;0.85;;
73474;SDS011;61711;52.266;10.542;2023-03-14T07:16:12;1.45;;;0.70;;
73474;SDS011;61711;52.266;10.542;2023-03-14T07:18:38;1.63;;;0.70;;
73474;SDS011;61711;52.266;10.542;2023-03-14T07:21:05;2.17;;;0.75;;
73474;SDS011;61711;52.266;10.542;2023-03-14T07:23:31;1.52;;;0.63;;
73474;SDS011;61711;52.266;10.542;2023-03-14T07:25:57;2.28;;;0.75;;
73474;SDS011;61711;52.266;10.542;2023-03-14T07:28:23;5.25;;;0.80;;
73474;SDS011;61711;52.266;10.542;2023-03-14T07:30:49;3.17;;;0.85;;
73474;SDS011;61711;52.266;10.542;2023-03-14T07:33:15;5.07;;;0.82;;
73474;SDS011;61711;52.266;10.542;2023-03-14T07:35:41;2.92;;;0.70;;
73474;SDS011;61711;52.266;10.542;2023-03-14T07:38:07;2.05;;;0.90;;
73474;SDS011;61711;52.266;10.542;2023-03-14T07:40:33;2.28;;;0.75;;
73474;SDS011;61711;52.266;10.542;2023-03-14T07:42:59;6.22;;;0.90;;
73474;SDS011;61711;52.266;10.542;2023-03-14T07:45:25;3.33;;;0.80;;
73474;SDS011;61711;52.266;10.542;2023-03-14T07:47:51;4.43;;;1.30;;
73474;SDS011;61711;52.266;10.542;2023-03-14T07:50:19;4.50;;;0.70;;
73474;SDS011;61711;52.266;10.542;2023-03-14T07:52:45;1.30;;;0.75;;
73474;SDS011;61711;52.266;10.542;2023-03-14T07:55:11;2.85;;;0.80;;
73474;SDS011;61711;52.266;10.542;2023-03-14T07:57:38;3.30;;;1.10;;
73474;SDS011;61711;52.266;10.542;2023-03-14T08:00:04;2.55;;;0.88;;
73474;SDS011;61711;52.266;10.542;2023-03-14T08:02:30;3.33;;;1.02;;
73474;SDS011;61711;52.266;10.542;2023-03-14T08:04:56;2.28;;;1.42;;
73474;SDS011;61711;52.266;10.542;2023-03-14T08:07:22;4.55;;;1.30;;
73474;SDS011;61711;52.266;10.542;2023-03-14T08:09:48;3.25;;;0.90;;
73474;SDS011;61711;52.266;10.542;2023-03-14T08:12:14;2.85;;;1.65;;
73474;SDS011;61711;52.266;10.542;2023-03-14T08:14:41;3.53;;;1.10;;
73474;SDS011;61711;52.266;10.542;2023-03-14T08:17:07;5.75;;;1.40;;
73474;SDS011;61711;52.266;10.542;2023-03-14T08:19:34;2.78;;;1.30;;
73474;SDS011;61711;52.266;10.542;2023-03-14T08:22:00;3.30;;;1.33;;
73474;SDS011;61711;52.266;10.542;2023-03-14T08:24:26;4.40;;;1.48;;
73474;SDS011;61711;52.266;10.542;2023-03-14T08:26:52;4.38;;;1.30;;
73474;SDS011;61711;52.266;10.542;2023-03-14T08:29:18;2.15;;;1.13;;
73474;SDS011;61711;52.266;10.542;2023-03-14T08:31:44;1.83;;;1.02;;
73474;SDS011;61711;52.266;10.542;2023-03-14T08:34:10;3.38;;;1.27;;
73474;SDS011;61711;52.266;10.542;2023-03-14T08:36:36;5.22;;;1.38;;
73474;SDS011;61711;52.266;10.542;2023-03-14T08:39:02;2.50;;;1.02;;
73474;SDS011;61711;52.266;10.542;2023-03-14T08:41:29;2.55;;;1.15;;
73474;SDS011;61711;52.266;10.542;2023-03-14T08:43:55;2.83;;;1.17;;
73474;SDS011;61711;52.266;10.542;2023-03-14T08:46:21;2.65;;;1.00;;
73474;SDS011;61711;52.266;10.542;2023-03-14T08:48:47;5.63;;;1.33;;
73474;SDS011;61711;52.266;10.542;2023-03-14T08:51:13;3.30;;;1.08;;
73474;SDS011;61711;52.266;10.542;2023-03-14T08:53:40;4.20;;;1.08;;
73474;SDS011;61711;52.266;10.542;2023-03-14T08:56:06;4.85;;;0.90;;
73474;SDS011;61711;52.266;10.542;2023-03-14T08:58:34;2.45;;;0.73;;
73474;SDS011;61711;52.266;10.542;2023-03-14T09:01:02;2.50;;;1.00;;
73474;SDS011;61711;52.266;10.542;2023-03-14T09:03:28;3.47;;;1.20;;
73474;SDS011;61711;52.266;10.542;2023-03-14T09:05:54;4.55;;;1.20;;
73474;SDS011;61711;52.266;10.542;2023-03-14T09:08:20;3.65;;;0.88;;
73474;SDS011;61711;52.266;10.542;2023-03-14T09:10:47;3.55;;;1.48;;
73474;SDS011;61711;52.266;10.542;2023-03-14T09:13:13;3.38;;;0.90;;
73474;SDS011;61711;52.266;10.542;2023-03-14T09:15:38;2.70;;;1.00;;
73474;SDS011;61711;52.266;10.542;2023-03-14T09:18:07;5.25;;;1.48;;
73474;SDS011;61711;52.266;10.542;2023-03-14T09:20:33;1.52;;;0.95;;
73474;SDS011;61711;52.266;10.542;2023-03-14T09:22:59;3.17;;;1.27;;
73474;SDS011;61711;52.266;10.542;2023-03-14T09:25:25;5.82;;;2.22;;
73474;SDS011;61711;52.266;10.542;2023-03-14T09:27:51;2.40;;;1.00;;
73474;SDS011;61711;52.266;10.542;2023-03-14T09:30:17;1.88;;;1.00;;
73474;SDS011;61711;52.266;10.542;2023-03-14T09:32:43;0.98;;;0.75;;
73474;SDS011;61711;52.266;10.542;2023-03-14T09:35:09;3.42;;;1.10;;
73474;SDS011;61711;52.266;10.542;2023-03-14T09:37:35;3.70;;;1.02;;
73474;SDS011;61711;52.266;10.542;2023-03-14T09:40:00;1.63;;;0.90;;
73474;SDS011;61711;52.266;10.542;2023-03-14T09:42:33;1.20;;;0.60;;
73474;SDS011;61711;52.266;10.542;2023-03-14T09:45:04;2.42;;;0.70;;
73474;SDS011;61711;52.266;10.542;2023-03-14T09:47:31;2.10;;;0.70;;
73474;SDS011;61711;52.266;10.542;2023-03-14T09:49:59;1.73;;;0.82;;
73474;SDS011;61711;52.266;10.542;2023-03-14T09:52:33;1.80;;;0.80;;
73474;SDS011;61711;52.266;10.542;2023-03-14T09:55:09;2.80;;;1.00;;
73474;SDS011;61711;52.266;10.542;2023-03-14T09:57:37;3.83;;;1.17;;
73474;SDS011;61711;52.266;10.542;2023-03-14T10:00:19;3.47;;;0.90;;
73474;SDS011;61711;52.266;10.542;2023-03-14T10:02:55;1.27;;;0.80;;
73474;SDS011;61711;52.266;10.542;2023-03-14T10:05:22;3.63;;;0.93;;
73474;SDS011;61711;52.266;10.542;2023-03-14T10:07:48;1.17;;;0.60;;
73474;SDS011;61711;52.266;10.542;2023-03-14T10:10:21;1.95;;;0.80;;
73474;SDS011;61711;52.266;10.542;2023-03-14T10:12:54;1.65;;;0.70;;
73474;SDS011;61711;52.266;10.542;2023-03-14T10:15:29;2.28;;;1.13;;
73474;SDS011;61711;52.266;10.542;2023-03-14T10:17:58;1.70;;;0.60;;
73474;SDS011;61711;52.266;10.542;2023-03-14T10:22:57;1.08;;;0.60;;
73474;SDS011;61711;52.266;10.542;2023-03-14T10:25:27;3.30;;;0.70;;
73474;SDS011;61711;52.266;10.542;2023-03-14T10:27:54;2.25;;;0.70;;
73474;SDS011;61711;52.266;10.542;2023-03-14T10:30:30;0.60;;;0.50;;
73474;SDS011;61711;52.266;10.542;2023-03-14T10:33:03;0.88;;;0.60;;
73474;SDS011;61711;52.266;10.542;2023-03-14T10:35:33;3.13;;;0.60;;
73474;SDS011;61711;52.266;10.542;2023-03-14T10:38:00;0.60;;;0.60;;
73474;SDS011;61711;52.266;10.542;2023-03-14T10:40:33;2.47;;;0.63;;
73474;SDS011;61711;52.266;10.542;2023-03-14T10:47:54;0.65;;;0.50;;
73474;SDS011;61711;52.266;10.542;2023-03-14T10:50:27;1.58;;;0.65;;
73474;SDS011;61711;52.266;10.542;2023-03-14T10:52:53;0.47;;;0.40;;
73474;SDS011;61711;52.266;10.542;2023-03-14T10:55:20;0.88;;;0.65;;
73474;SDS011;61711;52.266;10.542;2023-03-14T10:57:46;2.22;;;0.63;;
73474;SDS011;61711;52.266;10.542;2023-03-14T11:00:16;0.73;;;0.50;;
73474;SDS011;61711;52.266;10.542;2023-03-14T11:05:18;0.88;;;0.65;;
73474;SDS011;61711;52.266;10.542;2023-03-14T11:07:47;2.35;;;0.63;;
73474;SDS011;61711;52.266;10.542;2023-03-14T11:15:37;6.70;;;0.80;;
73474;SDS011;61711;52.266;10.542;2023-03-14T11:18:12;0.50;;;0.50;;
73474;SDS011;61711;52.266;10.542;2023-03-14T11:20:45;0.70;;;0.52;;
73474;SDS011;61711;52.266;10.542;2023-03-14T11:23:23;1.45;;;0.60;;
73474;SDS011;61711;52.266;10.542;2023-03-14T11:38:56;0.70;;;0.70;;
73474;SDS011;61711;52.266;10.542;2023-03-14T11:41:25;1.77;;;0.70;;
73474;SDS011;61711;52.266;10.542;2023-03-14T11:43:56;2.53;;;0.63;;
73474;SDS011;61711;52.266;10.542;2023-03-14T11:46:29;1.17;;;0.60;;
73474;SDS011;61711;52.266;10.542;2023-03-14T11:51:34;1.73;;;0.70;;
73474;SDS011;61711;52.266;10.542;2023-03-14T11:58:57;1.95;;;0.60;;
73474;SDS011;61711;52.266;10.542;2023-03-14T12:01:27;0.98;;;0.77;;
73474;SDS011;61711;52.266;10.542;2023-03-14T12:03:58;1.17;;;0.70;;
73474;SDS011;61711;52.266;10.542;2023-03-14T12:06:28;3.72;;;0.75;;
73474;SDS011;61711;52.266;10.542;2023-03-14T12:09:00;0.90;;;0.60;;
73474;SDS011;61711;52.266;10.542;2023-03-14T12:14:20;2.97;;;0.73;;
73474;SDS011;61711;52.266;10.542;2023-03-14T12:16:47;2.38;;;0.73;;
73474;SDS011;61711;52.266;10.542;2023-03-14T12:19:33;1.52;;;0.70;;
73474;SDS011;61711;52.266;10.542;2023-03-14T12:22:12;1.33;;;0.77;;
73474;SDS011;61711;52.266;10.542;2023-03-14T12:24:50;2.70;;;0.57;;
73474;SDS011;61711;52.266;10.542;2023-03-14T12:27:38;2.10;;;0.70;;
73474;SDS011;61711;52.266;10.542;2023-03-14T12:30:14;2.15;;;0.60;;
73474;SDS011;61711;52.266;10.542;2023-03-14T12:32:41;0.57;;;0.50;;
73474;SDS011;61711;52.266;10.542;2023-03-14T12:35:23;0.60;;;0.60;;
73474;SDS011;61711;52.266;10.542;2023-03-14T12:37:53;2.50;;;0.70;;
73474;SDS011;61711;52.266;10.542;2023-03-14T12:40:21;1.15;;;0.57;;
73474;SDS011;61711;52.266;10.542;2023-03-14T12:42:54;1.10;;;0.50;;
73474;SDS011;61711;52.266;10.542;2023-03-14T12:45:24;1.55;;;0.65;;
73474;SDS011;61711;52.266;10.542;2023-03-14T12:50:18;0.70;;;0.60;;
73474;SDS011;61711;52.266;10.542;2023-03-14T12:55:41;1.90;;;0.40;;
73474;SDS011;61711;52.266;10.542;2023-03-14T12:58:15;1.65;;;0.50;;
73474;SDS011;61711;52.266;10.542;2023-03-14T13:00:43;1.15;;;0.50;;
73474;SDS011;61711;52.266;10.542;2023-03-14T13:05:51;0.60;;;0.52;;
73474;SDS011;61711;52.266;10.542;2023-03-14T13:08:31;0.65;;;0.60;;
73474;SDS011;61711;52.266;10.542;2023-03-14T13:10:57;1.75;;;0.60;;
73474;SDS011;61711;52.266;10.542;2023-03-14T13:13:24;1.15;;;0.57;;
73474;SDS011;61711;52.266;10.542;2023-03-14T13:15:58;1.10;;;0.60;;
73474;SDS011;61711;52.266;10.542;2023-03-14T13:20:55;0.50;;;0.50;;
73474;SDS011;61711;52.266;10.542;2023-03-14T13:23:24;1.02;;;0.70;;
73474;SDS011;61711;52.266;10.542;2023-03-14T13:25:50;0.90;;;0.65;;
73474;SDS011;61711;52.266;10.542;2023-03-14T13:28:16;1.25;;;0.70;;
73474;SDS011;61711;52.266;10.542;2023-03-14T13:30:49;0.68;;;0.65;;
73474;SDS011;61711;52.266;10.542;2023-03-14T13:33:17;0.95;;;0.80;;
73474;SDS011;61711;52.266;10.542;2023-03-14T13:36:02;1.08;;;0.80;;
73474;SDS011;61711;52.266;10.542;2023-03-14T13:38:29;1.35;;;0.70;;
73474;SDS011;61711;52.266;10.542;2023-03-14T13:40:56;0.82;;;0.70;;
73474;SDS011;61711;52.266;10.542;2023-03-14T13:46:15;1.88;;;0.73;;
73474;SDS011;61711;52.266;10.542;2023-03-14T13:48:43;1.48;;;0.70;;
73474;SDS011;61711;52.266;10.542;2023-03-14T13:51:10;0.80;;;0.52;;
73474;SDS011;61711;52.266;10.542;2023-03-14T13:53:47;2.25;;;0.70;;
73474;SDS011;61711;52.266;10.542;2023-03-14T13:56:14;2.38;;;0.80;;
73474;SDS011;61711;52.266;10.542;2023-03-14T13:58:41;2.83;;;1.00;;
73474;SDS011;61711;52.266;10.542;2023-03-14T14:03:37;4.68;;;1.05;;
73474;SDS011;61711;52.266;10.542;2023-03-14T14:06:05;2.75;;;1.02;;
73474;SDS011;61711;52.266;10.542;2023-03-14T14:08:33;2.65;;;1.20;;
73474;SDS011;61711;52.266;10.542;2023-03-14T14:10:59;2.45;;;1.10;;
73474;SDS011;61711;52.266;10.542;2023-03-14T14:13:27;4.65;;;1.27;;
73474;SDS011;61711;52.266;10.542;2023-03-14T14:15:55;3.78;;;1.38;;
73474;SDS011;61711;52.266;10.542;2023-03-14T14:18:22;3.85;;;1.20;;
73474;SDS011;61711;52.266;10.542;2023-03-14T14:20:50;3.00;;;1.40;;
73474;SDS011;61711;52.266;10.542;2023-03-14T14:25:42;3.92;;;1.65;;
73474;SDS011;61711;52.266;10.542;2023-03-14T14:30:41;5.47;;;1.70;;
73474;SDS011;61711;52.266;10.542;2023-03-14T14:33:18;6.35;;;1.63;;
73474;SDS011;61711;52.266;10.542;2023-03-14T14:35:57;4.18;;;1.30;;
73474;SDS011;61711;52.266;10.542;2023-03-14T14:38:24;4.93;;;1.02;;
73474;SDS011;61711;52.266;10.542;2023-03-14T14:40:53;5.82;;;1.48;;
73474;SDS011;61711;52.266;10.542;2023-03-14T14:43:30;4.88;;;1.65;;
73474;SDS011;61711;52.266;10.542;2023-03-14T14:45:56;4.07;;;1.20;;
73474;SDS011;61711;52.266;10.542;2023-03-14T14:48:24;5.65;;;1.00;;
73474;SDS011;61711;52.266;10.542;2023-03-14T14:50:54;3.45;;;1.10;;
73474;SDS011;61711;52.266;10.542;2023-03-14T14:53:30;4.68;;;1.23;;
73474;SDS011;61711;52.266;10.542;2023-03-14T14:55:57;5.35;;;1.10;;
73474;SDS011;61711;52.266;10.542;2023-03-14T14:58:27;6.93;;;1.25;;
73474;SDS011;61711;52.266;10.542;2023-03-14T15:03:41;7.38;;;1.05;;
73474;SDS011;61711;52.266;10.542;2023-03-14T15:06:07;5.45;;;1.38;;
73474;SDS011;61711;52.266;10.542;2023-03-14T15:08:34;6.75;;;1.67;;
73474;SDS011;61711;52.266;10.542;2023-03-14T15:11:02;10.23;;;2.92;;
73474;SDS011;61711;52.266;10.542;2023-03-14T15:13:28;7.90;;;1.65;;
73474;SDS011;61711;52.266;10.542;2023-03-14T15:15:54;5.72;;;1.33;;
73474;SDS011;61711;52.266;10.542;2023-03-14T15:18:22;6.20;;;1.50;;
73474;SDS011;61711;52.266;10.542;2023-03-14T15:20:48;9.02;;;1.70;;
73474;SDS011;61711;52.266;10.542;2023-03-14T15:23:15;9.35;;;1.52;;
73474;SDS011;61711;52.266;10.542;2023-03-14T15:25:42;7.82;;;1.70;;
73474;SDS011;61711;52.266;10.542;2023-03-14T15:28:16;7.32;;;1.88;;
73474;SDS011;61711;52.266;10.542;2023-03-14T15:30:43;7.25;;;2.00;;
73474;SDS011;61711;52.266;10.542;2023-03-14T15:33:09;9.05;;;2.00;;
73474;SDS011;61711;52.266;10.542;2023-03-14T15:35:36;8.20;;;1.98;;
73474;SDS011;61711;52.266;10.542;2023-03-14T15:38:02;9.10;;;1.40;;
73474;SDS011;61711;52.266;10.542;2023-03-14T15:40:28;5.57;;;1.30;;
73474;SDS011;61711;52.266;10.542;2023-03-14T15:42:54;8.52;;;1.75;;
73474;SDS011;61711;52.266;10.542;2023-03-14T15:45:20;10.38;;;2.13;;
73474;SDS011;61711;52.266;10.542;2023-03-14T15:47:46;13.77;;;1.92;;
73474;SDS011;61711;52.266;10.542;2023-03-14T15:50:12;11.02;;;2.13;;
73474;SDS011;61711;52.266;10.542;2023-03-14T15:52:38;7.43;;;1.83;;
73474;SDS011;61711;52.266;10.542;2023-03-14T15:55:04;7.43;;;2.00;;